createdAt,value
2018-03-29T00:02:06.797Z,10.60
2018-03-29T00:04:34.318Z,11.13
2018-03-29T00:07:02.606Z,9.23
2018-03-29T00:09:30.928Z,10.43
2018-03-29T00:11:58.567Z,9.93
2018-03-29T00:14:26.140Z,11.63
2018-03-29T00:16:53.704Z,12.53
2018-03-29T00:19:21.242Z,12.40
2018-03-29T00:21:48.772Z,15.73
2018-03-29T00:24:17.093Z,15.47
2018-03-29T00:26:44.620Z,22.47
2018-03-29T00:29:12.211Z,18.57
2018-03-29T00:31:39.776Z,14.17
2018-03-29T00:34:07.298Z,15.53
2018-03-29T00:36:34.818Z,10.83
2018-03-29T00:39:02.529Z,12.90
2018-03-29T00:41:30.054Z,15.53
2018-03-29T00:43:58.350Z,10.07
2018-03-29T00:46:26.525Z,9.97
2018-03-29T00:48:54.904Z,24.50
2018-03-29T00:51:22.433Z,15.47
2018-03-29T00:53:50.744Z,9.20
2018-03-29T00:56:18.265Z,11.33
2018-03-29T00:58:46.803Z,9.13
2018-03-29T01:01:14.547Z,11.33
2018-03-29T01:03:42.068Z,17.03
2018-03-29T01:06:10.396Z,9.30
2018-03-29T01:08:38.037Z,16.63
2018-03-29T01:11:06.702Z,9.80
2018-03-29T01:13:35.234Z,13.37
2018-03-29T01:16:02.831Z,11.87
2018-03-29T01:18:31.106Z,10.63
2018-03-29T01:20:59.380Z,7.77
2018-03-29T01:23:27.698Z,6.63
2018-03-29T01:25:55.259Z,6.93
2018-03-29T01:28:22.771Z,8.33
2018-03-29T01:30:50.328Z,8.90
2018-03-29T01:33:19.366Z,7.70
2018-03-29T01:35:46.991Z,8.47
2018-03-29T01:38:15.311Z,9.60
2018-03-29T01:40:42.839Z,10.83
2018-03-29T01:43:11.177Z,10.70
2018-03-29T01:45:38.850Z,11.30
2018-03-29T01:48:07.183Z,12.23
2018-03-29T01:50:34.696Z,8.50
2018-03-29T01:53:03.121Z,10.07
2018-03-29T01:55:30.642Z,14.00
2018-03-29T01:57:58.938Z,16.27
2018-03-29T02:00:26.510Z,10.50
2018-03-29T02:02:54.024Z,14.03
2018-03-29T02:05:22.311Z,9.77
2018-03-29T02:07:50.649Z,20.27
2018-03-29T02:10:18.173Z,23.47
2018-03-29T02:12:45.679Z,22.53
2018-03-29T02:15:13.216Z,17.47
2018-03-29T02:17:40.761Z,23.17
2018-03-29T02:20:08.357Z,16.90
2018-03-29T02:22:37.422Z,17.93
2018-03-29T02:25:04.950Z,19.53
2018-03-29T02:27:32.474Z,15.07
2018-03-29T02:30:00.793Z,22.77
2018-03-29T02:32:28.321Z,15.23
2018-03-29T02:34:56.607Z,16.90
2018-03-29T02:37:25.074Z,15.63
2018-03-29T02:39:53.374Z,14.70
2018-03-29T02:42:20.886Z,18.67
2018-03-29T02:44:48.521Z,14.77
2018-03-29T02:47:16.056Z,17.73
2018-03-29T02:49:43.568Z,21.20
2018-03-29T02:52:11.888Z,19.47
2018-03-29T02:54:39.468Z,14.27
2018-03-29T02:57:07.000Z,26.43
2018-03-29T02:59:34.573Z,20.30
2018-03-29T03:02:02.241Z,20.67
2018-03-29T03:04:29.795Z,22.70
2018-03-29T03:06:57.359Z,19.83
2018-03-29T03:09:24.902Z,24.27
2018-03-29T03:11:52.429Z,23.00
2018-03-29T03:14:21.262Z,25.20
2018-03-29T03:16:48.771Z,26.23
2018-03-29T03:19:17.050Z,22.23
2018-03-29T03:21:45.383Z,24.10
2018-03-29T03:24:12.913Z,27.23
2018-03-29T03:26:40.448Z,27.87
2018-03-29T03:29:08.761Z,29.87
2018-03-29T03:31:36.325Z,21.57
2018-03-29T03:34:03.859Z,30.63
2018-03-29T03:36:31.635Z,34.07
2018-03-29T03:38:59.196Z,32.07
2018-03-29T03:41:26.712Z,36.97
2018-03-29T03:43:55.025Z,27.60
2018-03-29T03:46:22.599Z,25.57
2018-03-29T03:48:50.250Z,36.77
2018-03-29T03:51:17.811Z,37.10
2018-03-29T03:53:45.378Z,32.13
2018-03-29T03:56:12.927Z,34.50
2018-03-29T03:58:40.599Z,35.60
2018-03-29T04:01:08.180Z,37.10
2018-03-29T04:03:35.702Z,30.00
2018-03-29T04:06:03.291Z,32.73
2018-03-29T04:08:30.824Z,32.83
2018-03-29T04:10:58.381Z,32.13
2018-03-29T04:13:25.918Z,29.23
2018-03-29T04:15:53.432Z,29.23
2018-03-29T04:18:20.965Z,27.23
2018-03-29T04:20:48.528Z,36.83
2018-03-29T04:23:16.074Z,35.53
2018-03-29T04:25:46.288Z,25.50
2018-03-29T04:28:13.848Z,27.83
2018-03-29T04:30:41.426Z,32.23
2018-03-29T04:33:08.954Z,27.87
2018-03-29T04:35:36.511Z,30.03
2018-03-29T04:38:04.097Z,32.03
2018-03-29T04:40:31.621Z,27.93
2018-03-29T04:42:59.209Z,32.47
2018-03-29T04:45:26.786Z,29.90
2018-03-29T04:47:54.322Z,27.47
2018-03-29T04:50:22.257Z,32.20
2018-03-29T04:52:50.544Z,35.10
2018-03-29T04:55:18.129Z,33.20
2018-03-29T04:57:45.698Z,36.03
2018-03-29T05:00:13.270Z,38.23
2018-03-29T05:02:41.022Z,33.40
2018-03-29T05:05:08.847Z,38.97
2018-03-29T05:07:36.455Z,41.27
2018-03-29T05:10:04.098Z,42.27
2018-03-29T05:12:31.642Z,41.20
2018-03-29T05:14:59.156Z,40.10
2018-03-29T05:17:27.471Z,44.70
2018-03-29T05:19:55.036Z,41.80
2018-03-29T05:22:22.593Z,45.77
2018-03-29T05:24:50.118Z,45.70
2018-03-29T05:27:20.430Z,53.10
2018-03-29T05:29:48.720Z,48.87
2018-03-29T05:32:17.048Z,46.57
2018-03-29T05:34:44.598Z,53.90
2018-03-29T05:37:12.151Z,53.10
2018-03-29T05:39:40.029Z,47.10
2018-03-29T05:42:07.572Z,56.70
2018-03-29T05:44:35.100Z,57.07
2018-03-29T05:47:03.404Z,63.47
2018-03-29T05:49:30.953Z,64.97
2018-03-29T05:51:58.480Z,60.83
2018-03-29T05:54:26.764Z,69.60
2018-03-29T05:56:55.175Z,63.80
2018-03-29T05:59:22.706Z,64.03
2018-03-29T06:01:51.002Z,67.83
2018-03-29T06:04:18.560Z,61.67
2018-03-29T06:06:46.132Z,68.10
2018-03-29T06:09:13.701Z,65.53
2018-03-29T06:11:41.266Z,71.70
2018-03-29T06:14:08.817Z,66.23
2018-03-29T06:16:41.968Z,70.53
2018-03-29T06:19:10.280Z,84.03
2018-03-29T06:21:37.806Z,89.73
2018-03-29T06:24:05.403Z,78.83
2018-03-29T06:26:32.883Z,83.80
2018-03-29T06:29:00.408Z,81.33
2018-03-29T06:31:28.090Z,85.33
2018-03-29T06:33:55.628Z,85.77
2018-03-29T06:36:23.189Z,83.27
2018-03-29T06:38:50.944Z,68.57
2018-03-29T06:41:18.476Z,76.03
2018-03-29T06:43:46.002Z,79.87
2018-03-29T06:46:15.061Z,75.50
2018-03-29T06:48:42.589Z,71.90
2018-03-29T06:51:10.129Z,72.13
2018-03-29T06:53:38.569Z,70.70
2018-03-29T06:56:06.120Z,74.23
2018-03-29T06:58:34.084Z,69.03
2018-03-29T07:01:01.686Z,66.63
2018-03-29T07:03:29.194Z,71.07
2018-03-29T07:05:56.747Z,71.03
2018-03-29T07:08:24.299Z,68.67
2018-03-29T07:10:51.813Z,68.37
2018-03-29T07:13:20.100Z,67.90
2018-03-29T07:15:48.420Z,81.07
2018-03-29T07:18:15.951Z,69.40
2018-03-29T07:20:43.454Z,75.80
2018-03-29T07:23:10.999Z,80.20
2018-03-29T07:25:38.521Z,76.93
2018-03-29T07:28:06.819Z,74.80
2018-03-29T07:30:34.385Z,78.53
2018-03-29T07:33:01.901Z,88.07
2018-03-29T07:35:30.192Z,72.67
2018-03-29T07:37:57.784Z,67.70
2018-03-29T07:40:25.334Z,74.33
2018-03-29T07:42:52.860Z,74.33
2018-03-29T07:45:21.194Z,70.57
2018-03-29T07:47:48.736Z,63.03
2018-03-29T07:50:16.294Z,65.70
2018-03-29T07:52:43.842Z,74.87
2018-03-29T07:55:11.418Z,74.77
2018-03-29T07:57:38.943Z,72.50
2018-03-29T08:00:06.493Z,66.33
2018-03-29T08:02:34.779Z,61.50
2018-03-29T08:05:02.613Z,66.43
2018-03-29T08:07:31.765Z,64.90
2018-03-29T08:09:59.287Z,64.63
2018-03-29T08:12:27.600Z,59.27
2018-03-29T08:14:55.157Z,61.10
2018-03-29T08:17:22.676Z,60.03
2018-03-29T08:19:50.959Z,49.97
2018-03-29T08:22:19.279Z,61.20
2018-03-29T08:24:46.813Z,58.90
2018-03-29T08:27:14.392Z,56.73
2018-03-29T08:29:41.944Z,66.73
2018-03-29T08:32:09.503Z,60.53
2018-03-29T08:34:37.018Z,58.73
2018-03-29T08:37:05.430Z,66.43
2018-03-29T08:39:33.531Z,62.43
2018-03-29T08:42:01.062Z,64.23
2018-03-29T08:44:28.730Z,65.63
2018-03-29T08:46:56.286Z,65.23
2018-03-29T08:49:23.821Z,62.77
2018-03-29T08:51:51.384Z,68.03
2018-03-29T08:54:24.861Z,60.80
2018-03-29T08:56:53.188Z,64.60
2018-03-29T08:59:20.727Z,59.20
2018-03-29T09:01:48.244Z,56.63
2018-03-29T09:04:16.597Z,70.80
2018-03-29T09:06:44.241Z,69.20
2018-03-29T09:09:11.771Z,55.27
2018-03-29T09:11:39.334Z,57.87
2018-03-29T09:14:06.895Z,58.90
2018-03-29T09:16:34.465Z,65.13
2018-03-29T09:19:02.192Z,64.37
2018-03-29T09:21:30.472Z,64.30
2018-03-29T09:23:58.764Z,56.50
2018-03-29T09:26:27.269Z,51.67
2018-03-29T09:28:54.811Z,55.87
2018-03-29T09:31:22.328Z,54.53
2018-03-29T09:33:50.893Z,58.40
2018-03-29T09:36:19.932Z,57.00
2018-03-29T09:38:47.509Z,52.53
2018-03-29T09:41:15.065Z,54.60
2018-03-29T09:43:42.595Z,50.87
2018-03-29T09:46:10.109Z,50.53
2018-03-29T09:48:37.737Z,45.87
2018-03-29T09:51:05.310Z,50.10
2018-03-29T09:53:32.884Z,46.97
2018-03-29T09:56:00.513Z,44.30
2018-03-29T09:58:28.038Z,42.43
2018-03-29T10:01:02.055Z,42.20
2018-03-29T10:03:30.349Z,47.20
2018-03-29T10:06:03.630Z,43.20
2018-03-29T10:08:31.203Z,45.40
2018-03-29T10:10:58.719Z,42.47
2018-03-29T10:13:27.154Z,44.77
2018-03-29T10:15:54.688Z,46.87
2018-03-29T10:18:22.294Z,43.97
2018-03-29T10:20:49.851Z,44.57
2018-03-29T10:23:17.384Z,45.80
2018-03-29T10:25:44.898Z,50.07
2018-03-29T10:28:13.798Z,45.07
2018-03-29T10:30:42.140Z,52.30
2018-03-29T10:33:09.784Z,50.03
2018-03-29T10:35:37.433Z,49.50
2018-03-29T10:38:04.948Z,50.10
2018-03-29T10:40:33.224Z,53.23
2018-03-29T10:43:01.884Z,48.47
2018-03-29T10:45:29.401Z,51.60
2018-03-29T10:47:56.939Z,53.53
2018-03-29T10:50:24.507Z,59.50
2018-03-29T10:52:52.032Z,51.83
2018-03-29T10:55:20.350Z,52.23
2018-03-29T10:57:47.922Z,44.87
2018-03-29T11:00:15.462Z,63.87
2018-03-29T11:02:43.032Z,53.43
2018-03-29T11:05:10.583Z,55.83
2018-03-29T11:07:38.111Z,56.40
2018-03-29T11:10:06.407Z,53.63
2018-03-29T11:12:33.974Z,54.30
2018-03-29T11:15:01.497Z,50.73
2018-03-29T11:17:29.809Z,48.53
2018-03-29T11:19:57.382Z,53.57
2018-03-29T11:22:24.904Z,49.57
2018-03-29T11:24:52.442Z,48.93
2018-03-29T11:27:20.022Z,44.13
2018-03-29T11:29:47.546Z,52.53
2018-03-29T11:32:15.062Z,48.03
2018-03-29T11:34:42.625Z,48.63
2018-03-29T11:37:10.180Z,51.67
2018-03-29T11:39:37.741Z,51.60
2018-03-29T11:42:05.314Z,55.13
2018-03-29T11:44:32.853Z,54.30
2018-03-29T11:47:00.376Z,56.03
2018-03-29T11:49:28.709Z,24.37
2018-03-29T11:51:56.238Z,22.73
2018-03-29T11:54:23.765Z,22.53
2018-03-29T11:56:52.107Z,20.00
2018-03-29T11:59:19.638Z,23.20
2018-03-29T12:01:47.219Z,20.70
2018-03-29T12:04:14.877Z,23.83
2018-03-29T12:06:42.424Z,25.30
2018-03-29T12:09:09.981Z,22.20
2018-03-29T12:11:37.543Z,29.73
2018-03-29T12:14:05.065Z,25.53
2018-03-29T12:16:33.358Z,27.73
2018-03-29T12:19:00.907Z,27.50
2018-03-29T12:21:29.188Z,26.13
2018-03-29T12:23:56.785Z,29.87
2018-03-29T12:26:24.440Z,24.73
2018-03-29T12:28:51.981Z,23.53
2018-03-29T12:31:19.506Z,22.87
2018-03-29T12:33:47.841Z,21.40
2018-03-29T12:36:15.636Z,25.07
2018-03-29T12:38:43.966Z,31.60
2018-03-29T12:41:11.533Z,30.20
2018-03-29T12:43:39.078Z,24.63
2018-03-29T12:46:06.737Z,28.13
2018-03-29T12:48:34.312Z,29.03
2018-03-29T12:51:01.860Z,23.10
2018-03-29T12:53:29.403Z,27.00
2018-03-29T12:55:56.968Z,25.43
2018-03-29T12:58:24.498Z,38.43
2018-03-29T13:00:52.826Z,36.77
2018-03-29T13:03:20.395Z,32.03
2018-03-29T13:05:47.921Z,32.30
2018-03-29T13:08:15.477Z,33.00
2018-03-29T13:10:43.141Z,35.60
2018-03-29T13:13:11.132Z,36.37
2018-03-29T13:15:38.696Z,37.57
2018-03-29T13:18:06.264Z,34.70
2018-03-29T13:20:33.814Z,36.33
2018-03-29T13:23:01.369Z,33.50
2018-03-29T13:25:28.938Z,27.90
2018-03-29T13:27:56.452Z,31.97
2018-03-29T13:30:23.972Z,28.07
2018-03-29T13:32:51.550Z,17.97
2018-03-29T13:35:19.839Z,19.80
2018-03-29T13:37:47.415Z,14.60
2018-03-29T13:40:15.047Z,17.30
2018-03-29T13:42:43.381Z,11.40
2018-03-29T13:45:10.905Z,14.43
2018-03-29T13:47:38.454Z,15.70
2018-03-29T13:50:05.967Z,14.70
2018-03-29T13:52:34.243Z,15.40
2018-03-29T13:55:02.590Z,13.70
2018-03-29T13:57:30.146Z,15.40
2018-03-29T13:59:57.685Z,13.60
2018-03-29T14:02:25.258Z,14.53
2018-03-29T14:04:52.778Z,15.77
2018-03-29T14:07:21.095Z,13.10
2018-03-29T14:09:48.746Z,16.40
2018-03-29T14:12:16.310Z,16.10
2018-03-29T14:14:43.927Z,17.20
2018-03-29T14:17:11.541Z,15.23
2018-03-29T14:19:39.074Z,16.90
2018-03-29T14:22:06.613Z,17.30
2018-03-29T14:24:34.926Z,15.93
2018-03-29T14:27:02.490Z,20.33
2018-03-29T14:29:30.899Z,17.33
2018-03-29T14:31:59.212Z,19.87
2018-03-29T14:34:26.738Z,19.33
2018-03-29T14:36:55.076Z,16.83
2018-03-29T14:39:22.640Z,22.60
2018-03-29T14:41:50.163Z,18.77
2018-03-29T14:44:17.699Z,20.03
2018-03-29T14:46:46.073Z,17.50
2018-03-29T14:49:14.341Z,19.17
2018-03-29T14:51:41.979Z,19.23
2018-03-29T14:54:09.552Z,20.80
2018-03-29T14:56:37.072Z,19.73
2018-03-29T14:59:04.593Z,21.10
2018-03-29T15:01:32.986Z,20.73
2018-03-29T15:04:00.518Z,17.50
2018-03-29T15:06:28.034Z,21.03
2018-03-29T15:08:55.583Z,16.87
2018-03-29T15:11:23.090Z,21.90
2018-03-29T15:13:50.625Z,19.20
2018-03-29T15:16:18.196Z,19.87
2018-03-29T15:18:45.724Z,21.63
2018-03-29T15:21:13.252Z,19.13
2018-03-29T15:23:40.840Z,21.47
2018-03-29T15:26:08.368Z,24.90
2018-03-29T15:28:35.901Z,32.30
2018-03-29T15:31:03.462Z,28.83
2018-03-29T15:33:30.980Z,30.63
2018-03-29T15:35:58.494Z,30.70
2018-03-29T15:38:26.925Z,34.47
2018-03-29T15:40:54.461Z,26.10
2018-03-29T15:43:21.990Z,26.20
2018-03-29T15:45:50.409Z,21.43
2018-03-29T15:48:17.937Z,24.50
2018-03-29T15:50:45.450Z,18.73
2018-03-29T15:53:13.015Z,20.13
2018-03-29T15:55:40.624Z,22.00
2018-03-29T15:58:08.130Z,20.77
2018-03-29T16:00:35.694Z,16.60
2018-03-29T16:03:04.034Z,20.07
2018-03-29T16:05:31.559Z,17.03
2018-03-29T16:07:59.131Z,12.90
2018-03-29T16:10:26.650Z,14.50
2018-03-29T16:12:54.934Z,11.97
2018-03-29T16:15:23.257Z,12.50
2018-03-29T16:17:50.794Z,14.23
2018-03-29T16:20:18.332Z,12.73
2018-03-29T16:22:46.657Z,12.00
2018-03-29T16:25:14.177Z,13.70
2018-03-29T16:27:41.779Z,12.80
2018-03-29T16:30:09.332Z,11.77
2018-03-29T16:32:37.214Z,12.37
2018-03-29T16:35:04.786Z,13.03
2018-03-29T16:37:32.319Z,12.93
2018-03-29T16:39:59.856Z,11.70
2018-03-29T16:42:27.378Z,13.27
2018-03-29T16:44:55.743Z,10.10
2018-03-29T16:47:24.771Z,11.13
2018-03-29T16:49:52.317Z,11.03
2018-03-29T16:52:20.635Z,10.53
2018-03-29T16:54:48.174Z,11.80
2018-03-29T16:57:15.822Z,11.03
2018-03-29T16:59:43.372Z,13.97
2018-03-29T17:02:11.720Z,11.93
2018-03-29T17:04:39.231Z,14.87
2018-03-29T17:07:06.802Z,11.60
2018-03-29T17:09:34.311Z,13.33
2018-03-29T17:12:02.598Z,10.67
2018-03-29T17:14:30.927Z,13.07
2018-03-29T17:16:58.464Z,12.77
2018-03-29T17:19:25.977Z,14.53
2018-03-29T17:21:54.289Z,12.80
2018-03-29T17:24:21.802Z,12.57
2018-03-29T17:26:49.333Z,11.20
2018-03-29T17:29:16.899Z,11.70
2018-03-29T17:31:44.429Z,15.87
2018-03-29T17:34:11.946Z,17.70
2018-03-29T17:36:40.273Z,18.40
2018-03-29T17:39:07.801Z,18.37
2018-03-29T17:41:35.332Z,20.40
2018-03-29T17:44:02.881Z,17.90
2018-03-29T17:46:30.423Z,23.30
2018-03-29T17:48:57.947Z,20.97
2018-03-29T17:51:25.493Z,21.37
2018-03-29T17:53:53.032Z,22.63
2018-03-29T17:56:21.322Z,17.90
2018-03-29T17:58:48.882Z,24.33
2018-03-29T18:01:16.417Z,21.40
2018-03-29T18:03:44.704Z,22.20
2018-03-29T18:06:13.055Z,23.43
2018-03-29T18:08:42.090Z,27.20
2018-03-29T18:11:09.599Z,30.93
2018-03-29T18:13:37.227Z,27.23
2018-03-29T18:16:04.821Z,30.97
2018-03-29T18:18:32.362Z,25.27
2018-03-29T18:20:59.926Z,25.07
2018-03-29T18:23:27.451Z,20.90
2018-03-29T18:25:54.969Z,23.27
2018-03-29T18:28:23.292Z,23.70
2018-03-29T18:30:50.870Z,22.73
2018-03-29T18:33:18.390Z,25.50
2018-03-29T18:35:45.941Z,26.33
2018-03-29T18:38:14.240Z,25.60
2018-03-29T18:40:41.767Z,31.43
2018-03-29T18:43:10.088Z,31.40
2018-03-29T18:45:38.030Z,36.30
2018-03-29T18:48:05.609Z,32.50
2018-03-29T18:50:33.181Z,30.67
2018-03-29T18:53:00.735Z,36.47
2018-03-29T18:55:28.292Z,28.93
2018-03-29T18:57:55.838Z,30.13
2018-03-29T19:00:23.343Z,34.43
2018-03-29T19:02:52.408Z,30.10
2018-03-29T19:05:20.153Z,29.50
2018-03-29T19:07:47.690Z,34.57
2018-03-29T19:10:15.222Z,31.07
2018-03-29T19:12:43.548Z,32.77
2018-03-29T19:15:11.103Z,32.90
2018-03-29T19:17:38.950Z,38.30
2018-03-29T19:20:06.528Z,45.07
2018-03-29T19:22:34.055Z,35.37
2018-03-29T19:25:02.349Z,39.67
2018-03-29T19:27:30.047Z,35.50
2018-03-29T19:29:57.562Z,36.10
2018-03-29T19:32:25.149Z,39.63
2018-03-29T19:34:52.714Z,40.90
2018-03-29T19:37:20.322Z,42.13
2018-03-29T19:39:48.607Z,33.00
2018-03-29T19:42:16.922Z,35.90
2018-03-29T19:44:44.430Z,33.00
2018-03-29T19:47:12.727Z,36.90
2018-03-29T19:49:40.331Z,29.17
2018-03-29T19:52:08.198Z,34.83
2018-03-29T19:54:35.740Z,33.43
2018-03-29T19:57:03.402Z,32.77
2018-03-29T19:59:30.976Z,33.67
2018-03-29T20:01:58.512Z,33.80
2018-03-29T20:04:26.103Z,35.83
2018-03-29T20:06:53.652Z,39.63
2018-03-29T20:09:21.196Z,40.40
2018-03-29T20:11:48.750Z,36.57
2018-03-29T20:14:16.310Z,35.47
2018-03-29T20:16:43.822Z,37.90
2018-03-29T20:19:12.165Z,38.27
2018-03-29T20:21:39.724Z,40.90
2018-03-29T20:24:07.260Z,35.50
2018-03-29T20:26:35.232Z,47.20
2018-03-29T20:29:02.771Z,44.20
2018-03-29T20:31:30.291Z,48.60
2018-03-29T20:33:58.737Z,50.03
2018-03-29T20:36:26.271Z,56.00
2018-03-29T20:38:53.786Z,52.23
2018-03-29T20:41:22.108Z,54.50
2018-03-29T20:43:49.671Z,46.23
2018-03-29T20:46:17.222Z,42.20
2018-03-29T20:48:44.771Z,42.80
2018-03-29T20:51:12.298Z,46.33
2018-03-29T20:53:39.915Z,48.40
2018-03-29T20:56:07.462Z,46.00
2018-03-29T20:58:34.970Z,44.13
2018-03-29T21:01:03.275Z,48.27
2018-03-29T21:03:30.840Z,43.23
2018-03-29T21:05:58.385Z,44.20
2018-03-29T21:08:26.676Z,46.47
2018-03-29T21:10:54.232Z,53.53
2018-03-29T21:13:21.756Z,55.27
2018-03-29T21:15:49.283Z,49.77
2018-03-29T21:18:16.842Z,46.37
2018-03-29T21:20:44.454Z,47.40
2018-03-29T21:23:12.732Z,49.47
2018-03-29T21:25:41.047Z,47.97
2018-03-29T21:28:08.586Z,50.10
2018-03-29T21:30:36.109Z,43.70
2018-03-29T21:33:04.442Z,48.13
2018-03-29T21:35:31.955Z,45.03
2018-03-29T21:38:00.245Z,45.07
2018-03-29T21:40:27.817Z,50.27
2018-03-29T21:42:55.342Z,44.20
2018-03-29T21:45:23.687Z,51.67
2018-03-29T21:47:52.759Z,52.07
2018-03-29T21:50:20.277Z,51.10
2018-03-29T21:52:48.577Z,55.53
2018-03-29T21:55:16.142Z,43.77
2018-03-29T21:57:43.664Z,45.93
2018-03-29T22:00:11.972Z,51.43
2018-03-29T22:02:39.534Z,52.50
2018-03-29T22:05:07.038Z,57.23
2018-03-29T22:07:34.573Z,63.57
2018-03-29T22:10:02.211Z,53.70
2018-03-29T22:12:29.761Z,60.03
2018-03-29T22:14:57.343Z,62.50
2018-03-29T22:17:24.925Z,51.63
2018-03-29T22:19:52.431Z,54.03
2018-03-29T22:22:19.938Z,58.23
2018-03-29T22:24:47.576Z,53.23
2018-03-29T22:27:15.130Z,50.20
2018-03-29T22:29:42.955Z,52.03
2018-03-29T22:32:11.305Z,48.83
2018-03-29T22:34:39.613Z,52.63
2018-03-29T22:37:07.210Z,53.27
2018-03-29T22:39:34.771Z,50.67
2018-03-29T22:42:02.311Z,48.90
2018-03-29T22:44:29.832Z,57.67
2018-03-29T22:46:58.247Z,52.87
2018-03-29T22:49:25.764Z,54.27
2018-03-29T22:51:54.051Z,52.17
2018-03-29T22:54:22.377Z,49.50
2018-03-29T22:56:49.896Z,59.10
2018-03-29T22:59:17.425Z,58.53
2018-03-29T23:01:44.975Z,53.93
2018-03-29T23:04:12.493Z,50.30
2018-03-29T23:06:40.025Z,51.50
2018-03-29T23:09:07.580Z,53.03
2018-03-29T23:11:35.864Z,55.70
2018-03-29T23:14:03.375Z,59.83
2018-03-29T23:16:30.939Z,50.70
2018-03-29T23:18:58.468Z,60.17
2018-03-29T23:21:25.972Z,53.60
2018-03-29T23:23:54.296Z,56.60
2018-03-29T23:26:21.832Z,54.90
2018-03-29T23:28:49.342Z,49.27
2018-03-29T23:31:16.899Z,58.20
2018-03-29T23:33:44.430Z,60.67
2018-03-29T23:36:12.003Z,62.20
2018-03-29T23:38:39.547Z,66.80
2018-03-29T23:41:07.083Z,58.37
2018-03-29T23:43:35.441Z,63.37
2018-03-29T23:46:03.870Z,61.90
2018-03-29T23:48:31.430Z,62.73
2018-03-29T23:50:58.956Z,62.63
2018-03-29T23:53:26.517Z,63.17
2018-03-29T23:55:54.033Z,56.37
2018-03-29T23:58:21.546Z,64.57
